sensor_id;sensor_type;location;lat;lon;timestamp;P1;durP1;ratioP1;P2;durP2;ratioP2
3052;SDS011;1536;51.098;6.414;2023-07-02T00:01:57;5.80;;;3.63;;
3052;SDS011;1536;51.098;6.414;2023-07-02T00:04:25;14.97;;;4.57;;
3052;SDS011;1536;51.098;6.414;2023-07-02T00:06:52;7.73;;;3.40;;
3052;SDS011;1536;51.098;6.414;2023-07-02T00:09:19;3.90;;;3.47;;
3052;SDS011;1536;51.098;6.414;2023-07-02T00:11:46;10.87;;;4.80;;
3052;SDS011;1536;51.098;6.414;2023-07-02T00:14:13;11.60;;;4.67;;
3052;SDS011;1536;51.098;6.414;2023-07-02T00:16:41;6.53;;;4.87;;
3052;SDS011;1536;51.098;6.414;2023-07-02T00:19:11;6.00;;;4.50;;
3052;SDS011;1536;51.098;6.414;2023-07-02T00:21:39;11.30;;;4.47;;
3052;SDS011;1536;51.098;6.414;2023-07-02T00:24:06;8.33;;;4.90;;
3052;SDS011;1536;51.098;6.414;2023-07-02T00:26:35;9.77;;;4.73;;
3052;SDS011;1536;51.098;6.414;2023-07-02T00:29:05;6.60;;;4.90;;
3052;SDS011;1536;51.098;6.414;2023-07-02T00:31:33;5.60;;;4.73;;
3052;SDS011;1536;51.098;6.414;2023-07-02T00:34:00;14.67;;;5.30;;
3052;SDS011;1536;51.098;6.414;2023-07-02T00:36:28;12.30;;;5.10;;
3052;SDS011;1536;51.098;6.414;2023-07-02T00:38:55;10.23;;;5.27;;
3052;SDS011;1536;51.098;6.414;2023-07-02T00:41:23;8.07;;;4.93;;
3052;SDS011;1536;51.098;6.414;2023-07-02T00:43:50;16.30;;;5.67;;
3052;SDS011;1536;51.098;6.414;2023-07-02T00:46:19;12.20;;;5.57;;
3052;SDS011;1536;51.098;6.414;2023-07-02T00:48:48;8.93;;;5.40;;
3052;SDS011;1536;51.098;6.414;2023-07-02T00:51:16;10.80;;;5.63;;
3052;SDS011;1536;51.098;6.414;2023-07-02T00:53:46;9.90;;;5.20;;
3052;SDS011;1536;51.098;6.414;2023-07-02T00:56:14;8.27;;;6.13;;
3052;SDS011;1536;51.098;6.414;2023-07-02T00:58:41;11.93;;;5.57;;
3052;SDS011;1536;51.098;6.414;2023-07-02T01:01:13;11.00;;;5.60;;
3052;SDS011;1536;51.098;6.414;2023-07-02T01:03:49;10.57;;;6.40;;
3052;SDS011;1536;51.098;6.414;2023-07-02T01:06:19;11.10;;;6.43;;
3052;SDS011;1536;51.098;6.414;2023-07-02T01:08:51;11.50;;;6.23;;
3052;SDS011;1536;51.098;6.414;2023-07-02T01:11:19;10.33;;;6.13;;
3052;SDS011;1536;51.098;6.414;2023-07-02T01:13:48;11.30;;;6.33;;
3052;SDS011;1536;51.098;6.414;2023-07-02T01:16:17;11.27;;;6.30;;
3052;SDS011;1536;51.098;6.414;2023-07-02T01:18:46;16.27;;;6.60;;
3052;SDS011;1536;51.098;6.414;2023-07-02T01:21:20;15.07;;;6.90;;
3052;SDS011;1536;51.098;6.414;2023-07-02T01:23:49;15.13;;;8.17;;
3052;SDS011;1536;51.098;6.414;2023-07-02T01:26:15;15.50;;;8.27;;
3052;SDS011;1536;51.098;6.414;2023-07-02T01:28:44;11.40;;;6.13;;
3052;SDS011;1536;51.098;6.414;2023-07-02T01:31:11;9.67;;;7.30;;
3052;SDS011;1536;51.098;6.414;2023-07-02T01:33:39;11.97;;;7.67;;
3052;SDS011;1536;51.098;6.414;2023-07-02T01:36:07;16.40;;;7.63;;
3052;SDS011;1536;51.098;6.414;2023-07-02T01:38:35;16.40;;;7.97;;
3052;SDS011;1536;51.098;6.414;2023-07-02T01:41:02;18.33;;;8.03;;
3052;SDS011;1536;51.098;6.414;2023-07-02T01:43:29;18.87;;;9.97;;
3052;SDS011;1536;51.098;6.414;2023-07-02T01:45:56;12.73;;;7.80;;
3052;SDS011;1536;51.098;6.414;2023-07-02T01:48:24;14.90;;;8.50;;
3052;SDS011;1536;51.098;6.414;2023-07-02T01:50:51;23.93;;;9.10;;
3052;SDS011;1536;51.098;6.414;2023-07-02T01:53:18;14.80;;;8.70;;
3052;SDS011;1536;51.098;6.414;2023-07-02T01:55:46;17.03;;;8.40;;
3052;SDS011;1536;51.098;6.414;2023-07-02T01:58:13;22.03;;;10.17;;
3052;SDS011;1536;51.098;6.414;2023-07-02T02:00:39;13.93;;;9.50;;
3052;SDS011;1536;51.098;6.414;2023-07-02T02:03:06;19.53;;;9.67;;
3052;SDS011;1536;51.098;6.414;2023-07-02T02:05:33;17.70;;;9.50;;
3052;SDS011;1536;51.098;6.414;2023-07-02T02:08:00;21.57;;;9.73;;
3052;SDS011;1536;51.098;6.414;2023-07-02T02:10:27;14.87;;;10.30;;
3052;SDS011;1536;51.098;6.414;2023-07-02T02:12:55;15.53;;;9.90;;
3052;SDS011;1536;51.098;6.414;2023-07-02T02:15:22;18.77;;;10.13;;
3052;SDS011;1536;51.098;6.414;2023-07-02T02:17:48;24.57;;;10.57;;
3052;SDS011;1536;51.098;6.414;2023-07-02T02:20:15;17.90;;;11.77;;
3052;SDS011;1536;51.098;6.414;2023-07-02T02:22:43;16.80;;;10.03;;
3052;SDS011;1536;51.098;6.414;2023-07-02T02:25:09;23.07;;;11.33;;
3052;SDS011;1536;51.098;6.414;2023-07-02T02:27:36;22.60;;;11.53;;
3052;SDS011;1536;51.098;6.414;2023-07-02T02:30:06;23.83;;;11.50;;
3052;SDS011;1536;51.098;6.414;2023-07-02T02:32:34;19.10;;;11.53;;
3052;SDS011;1536;51.098;6.414;2023-07-02T02:35:01;19.50;;;11.73;;
3052;SDS011;1536;51.098;6.414;2023-07-02T02:37:28;23.20;;;11.43;;
3052;SDS011;1536;51.098;6.414;2023-07-02T02:39:55;19.10;;;12.40;;
3052;SDS011;1536;51.098;6.414;2023-07-02T02:42:23;23.23;;;12.33;;
3052;SDS011;1536;51.098;6.414;2023-07-02T02:44:51;21.57;;;13.20;;
3052;SDS011;1536;51.098;6.414;2023-07-02T02:47:19;20.80;;;10.87;;
3052;SDS011;1536;51.098;6.414;2023-07-02T02:49:46;26.03;;;12.43;;
3052;SDS011;1536;51.098;6.414;2023-07-02T02:52:12;18.27;;;11.77;;
3052;SDS011;1536;51.098;6.414;2023-07-02T02:54:39;20.87;;;12.20;;
3052;SDS011;1536;51.098;6.414;2023-07-02T02:57:07;22.40;;;12.77;;
3052;SDS011;1536;51.098;6.414;2023-07-02T02:59:34;20.50;;;12.73;;
3052;SDS011;1536;51.098;6.414;2023-07-02T03:02:03;21.73;;;12.57;;
3052;SDS011;1536;51.098;6.414;2023-07-02T03:04:31;23.37;;;13.50;;
3052;SDS011;1536;51.098;6.414;2023-07-02T03:06:58;23.00;;;14.73;;
3052;SDS011;1536;51.098;6.414;2023-07-02T03:09:25;25.73;;;12.83;;
3052;SDS011;1536;51.098;6.414;2023-07-02T03:11:52;25.07;;;13.47;;
3052;SDS011;1536;51.098;6.414;2023-07-02T03:14:19;23.00;;;13.23;;
3052;SDS011;1536;51.098;6.414;2023-07-02T03:16:46;22.73;;;14.93;;
3052;SDS011;1536;51.098;6.414;2023-07-02T03:19:12;31.23;;;15.53;;
3052;SDS011;1536;51.098;6.414;2023-07-02T03:21:42;21.93;;;13.97;;
3052;SDS011;1536;51.098;6.414;2023-07-02T03:24:09;27.03;;;16.03;;
3052;SDS011;1536;51.098;6.414;2023-07-02T03:26:36;25.53;;;13.57;;
3052;SDS011;1536;51.098;6.414;2023-07-02T03:29:03;24.20;;;13.63;;
3052;SDS011;1536;51.098;6.414;2023-07-02T03:31:30;25.00;;;13.70;;
3052;SDS011;1536;51.098;6.414;2023-07-02T03:33:57;23.83;;;14.83;;
3052;SDS011;1536;51.098;6.414;2023-07-02T03:36:24;31.50;;;14.63;;
3052;SDS011;1536;51.098;6.414;2023-07-02T03:38:54;23.50;;;13.57;;
3052;SDS011;1536;51.098;6.414;2023-07-02T03:41:21;25.97;;;14.00;;
3052;SDS011;1536;51.098;6.414;2023-07-02T03:43:48;35.10;;;16.40;;
3052;SDS011;1536;51.098;6.414;2023-07-02T03:46:15;26.40;;;14.90;;
3052;SDS011;1536;51.098;6.414;2023-07-02T03:48:41;27.50;;;15.30;;
3052;SDS011;1536;51.098;6.414;2023-07-02T03:51:08;35.93;;;16.97;;
3052;SDS011;1536;51.098;6.414;2023-07-02T03:53:35;27.20;;;14.23;;
3052;SDS011;1536;51.098;6.414;2023-07-02T03:56:03;26.37;;;15.77;;
3052;SDS011;1536;51.098;6.414;2023-07-02T03:58:30;29.33;;;14.40;;
3052;SDS011;1536;51.098;6.414;2023-07-02T04:00:57;27.67;;;15.47;;
3052;SDS011;1536;51.098;6.414;2023-07-02T04:03:24;22.50;;;15.00;;
3052;SDS011;1536;51.098;6.414;2023-07-02T04:05:50;27.70;;;17.10;;
3052;SDS011;1536;51.098;6.414;2023-07-02T04:08:18;28.03;;;15.47;;
3052;SDS011;1536;51.098;6.414;2023-07-02T04:10:47;29.10;;;14.97;;
3052;SDS011;1536;51.098;6.414;2023-07-02T04:13:15;27.63;;;15.50;;
3052;SDS011;1536;51.098;6.414;2023-07-02T04:15:42;27.17;;;15.63;;
3052;SDS011;1536;51.098;6.414;2023-07-02T04:18:09;30.60;;;16.50;;
3052;SDS011;1536;51.098;6.414;2023-07-02T04:20:35;36.77;;;18.17;;
3052;SDS011;1536;51.098;6.414;2023-07-02T04:23:03;27.47;;;15.97;;
3052;SDS011;1536;51.098;6.414;2023-07-02T04:25:30;23.83;;;16.40;;
3052;SDS011;1536;51.098;6.414;2023-07-02T04:27:57;35.30;;;16.57;;
3052;SDS011;1536;51.098;6.414;2023-07-02T04:30:25;29.43;;;15.33;;
3052;SDS011;1536;51.098;6.414;2023-07-02T04:32:54;26.93;;;16.13;;
3052;SDS011;1536;51.098;6.414;2023-07-02T04:35:21;29.13;;;16.87;;
3052;SDS011;1536;51.098;6.414;2023-07-02T04:37:49;28.07;;;15.73;;
3052;SDS011;1536;51.098;6.414;2023-07-02T04:40:16;32.67;;;16.90;;
3052;SDS011;1536;51.098;6.414;2023-07-02T04:42:43;34.93;;;15.90;;
3052;SDS011;1536;51.098;6.414;2023-07-02T04:45:11;26.50;;;17.50;;
3052;SDS011;1536;51.098;6.414;2023-07-02T04:47:41;27.30;;;15.77;;
3052;SDS011;1536;51.098;6.414;2023-07-02T04:50:09;26.80;;;16.00;;
3052;SDS011;1536;51.098;6.414;2023-07-02T04:52:36;31.90;;;18.67;;
3052;SDS011;1536;51.098;6.414;2023-07-02T04:55:04;28.20;;;18.00;;
3052;SDS011;1536;51.098;6.414;2023-07-02T04:57:32;26.60;;;15.87;;
3052;SDS011;1536;51.098;6.414;2023-07-02T04:59:58;28.70;;;16.00;;
3052;SDS011;1536;51.098;6.414;2023-07-02T05:02:25;29.20;;;16.67;;
3052;SDS011;1536;51.098;6.414;2023-07-02T05:04:54;36.53;;;17.80;;
3052;SDS011;1536;51.098;6.414;2023-07-02T05:07:21;30.93;;;17.00;;
3052;SDS011;1536;51.098;6.414;2023-07-02T05:09:49;26.80;;;17.40;;
3052;SDS011;1536;51.098;6.414;2023-07-02T05:12:18;28.57;;;17.47;;
3052;SDS011;1536;51.098;6.414;2023-07-02T05:14:45;29.03;;;16.70;;
3052;SDS011;1536;51.098;6.414;2023-07-02T05:17:12;32.90;;;17.07;;
3052;SDS011;1536;51.098;6.414;2023-07-02T05:19:39;31.00;;;18.57;;
3052;SDS011;1536;51.098;6.414;2023-07-02T05:22:09;28.43;;;16.97;;
3052;SDS011;1536;51.098;6.414;2023-07-02T05:24:36;24.67;;;17.17;;
3052;SDS011;1536;51.098;6.414;2023-07-02T05:27:03;33.90;;;17.63;;
3052;SDS011;1536;51.098;6.414;2023-07-02T05:29:30;31.17;;;16.83;;
3052;SDS011;1536;51.098;6.414;2023-07-02T05:31:57;26.73;;;17.20;;
3052;SDS011;1536;51.098;6.414;2023-07-02T05:34:25;35.00;;;17.33;;
3052;SDS011;1536;51.098;6.414;2023-07-02T05:36:52;29.30;;;17.67;;
3052;SDS011;1536;51.098;6.414;2023-07-02T05:39:20;33.40;;;20.10;;
3052;SDS011;1536;51.098;6.414;2023-07-02T05:41:47;35.53;;;20.57;;
3052;SDS011;1536;51.098;6.414;2023-07-02T05:44:14;32.00;;;17.73;;
3052;SDS011;1536;51.098;6.414;2023-07-02T05:46:42;31.83;;;17.10;;
3052;SDS011;1536;51.098;6.414;2023-07-02T05:49:09;35.90;;;18.57;;
3052;SDS011;1536;51.098;6.414;2023-07-02T05:51:36;31.80;;;18.90;;
3052;SDS011;1536;51.098;6.414;2023-07-02T05:54:04;38.33;;;17.67;;
3052;SDS011;1536;51.098;6.414;2023-07-02T05:56:36;40.73;;;18.33;;
3052;SDS011;1536;51.098;6.414;2023-07-02T05:59:02;32.30;;;20.13;;
3052;SDS011;1536;51.098;6.414;2023-07-02T06:01:29;33.87;;;18.23;;
3052;SDS011;1536;51.098;6.414;2023-07-02T06:03:56;33.03;;;19.13;;
3052;SDS011;1536;51.098;6.414;2023-07-02T06:06:23;32.87;;;18.03;;
3052;SDS011;1536;51.098;6.414;2023-07-02T06:08:50;31.03;;;18.30;;
3052;SDS011;1536;51.098;6.414;2023-07-02T06:11:17;27.23;;;18.13;;
3052;SDS011;1536;51.098;6.414;2023-07-02T06:13:45;36.37;;;18.60;;
3052;SDS011;1536;51.098;6.414;2023-07-02T06:16:12;30.33;;;16.70;;
3052;SDS011;1536;51.098;6.414;2023-07-02T06:18:38;32.43;;;16.80;;
3052;SDS011;1536;51.098;6.414;2023-07-02T06:21:06;27.97;;;16.50;;
3052;SDS011;1536;51.098;6.414;2023-07-02T06:23:39;30.27;;;15.73;;
3052;SDS011;1536;51.098;6.414;2023-07-02T06:26:06;35.67;;;16.97;;
3052;SDS011;1536;51.098;6.414;2023-07-02T06:28:33;31.17;;;17.87;;
3052;SDS011;1536;51.098;6.414;2023-07-02T06:31:01;26.80;;;15.17;;
3052;SDS011;1536;51.098;6.414;2023-07-02T06:33:28;31.77;;;16.70;;
3052;SDS011;1536;51.098;6.414;2023-07-02T06:35:55;31.33;;;16.53;;
3052;SDS011;1536;51.098;6.414;2023-07-02T06:38:21;25.00;;;16.10;;
3052;SDS011;1536;51.098;6.414;2023-07-02T06:40:48;29.73;;;15.50;;
3052;SDS011;1536;51.098;6.414;2023-07-02T06:43:15;30.43;;;16.53;;
3052;SDS011;1536;51.098;6.414;2023-07-02T06:45:41;26.70;;;14.63;;
3052;SDS011;1536;51.098;6.414;2023-07-02T06:48:12;26.40;;;16.10;;
3052;SDS011;1536;51.098;6.414;2023-07-02T06:50:43;26.90;;;16.40;;
3052;SDS011;1536;51.098;6.414;2023-07-02T06:53:11;24.77;;;14.13;;
3052;SDS011;1536;51.098;6.414;2023-07-02T06:55:38;27.20;;;15.77;;
3052;SDS011;1536;51.098;6.414;2023-07-02T06:58:05;28.23;;;16.10;;
3052;SDS011;1536;51.098;6.414;2023-07-02T07:00:33;37.97;;;16.90;;
3052;SDS011;1536;51.098;6.414;2023-07-02T07:03:01;31.83;;;16.53;;
3052;SDS011;1536;51.098;6.414;2023-07-02T07:05:30;23.17;;;16.47;;
3052;SDS011;1536;51.098;6.414;2023-07-02T07:07:57;30.97;;;15.83;;
3052;SDS011;1536;51.098;6.414;2023-07-02T07:10:25;30.23;;;16.97;;
3052;SDS011;1536;51.098;6.414;2023-07-02T07:12:52;31.63;;;16.43;;
3052;SDS011;1536;51.098;6.414;2023-07-02T07:15:19;37.87;;;16.80;;
3052;SDS011;1536;51.098;6.414;2023-07-02T07:17:46;34.20;;;17.77;;
3052;SDS011;1536;51.098;6.414;2023-07-02T07:20:12;24.17;;;15.73;;
3052;SDS011;1536;51.098;6.414;2023-07-02T07:22:41;31.43;;;16.43;;
3052;SDS011;1536;51.098;6.414;2023-07-02T07:25:08;31.23;;;16.63;;
3052;SDS011;1536;51.098;6.414;2023-07-02T07:27:35;29.13;;;17.20;;
3052;SDS011;1536;51.098;6.414;2023-07-02T07:30:02;36.07;;;15.60;;
3052;SDS011;1536;51.098;6.414;2023-07-02T07:32:29;27.90;;;15.17;;
3052;SDS011;1536;51.098;6.414;2023-07-02T07:34:56;30.47;;;16.10;;
3052;SDS011;1536;51.098;6.414;2023-07-02T07:37:23;30.90;;;16.40;;
3052;SDS011;1536;51.098;6.414;2023-07-02T07:39:52;24.10;;;15.20;;
3052;SDS011;1536;51.098;6.414;2023-07-02T07:42:19;23.10;;;12.97;;
3052;SDS011;1536;51.098;6.414;2023-07-02T07:44:46;27.37;;;13.00;;
3052;SDS011;1536;51.098;6.414;2023-07-02T07:47:13;28.23;;;15.10;;
3052;SDS011;1536;51.098;6.414;2023-07-02T07:49:40;27.00;;;15.73;;
3052;SDS011;1536;51.098;6.414;2023-07-02T07:52:07;26.57;;;15.60;;
3052;SDS011;1536;51.098;6.414;2023-07-02T07:54:34;22.90;;;13.83;;
3052;SDS011;1536;51.098;6.414;2023-07-02T07:57:02;25.47;;;14.90;;
3052;SDS011;1536;51.098;6.414;2023-07-02T07:59:30;22.07;;;13.27;;
3052;SDS011;1536;51.098;6.414;2023-07-02T08:01:56;26.00;;;14.63;;
3052;SDS011;1536;51.098;6.414;2023-07-02T08:04:24;27.30;;;15.60;;
3052;SDS011;1536;51.098;6.414;2023-07-02T08:06:51;27.23;;;15.10;;
3052;SDS011;1536;51.098;6.414;2023-07-02T08:09:19;28.57;;;16.07;;
3052;SDS011;1536;51.098;6.414;2023-07-02T08:11:46;32.70;;;16.80;;
3052;SDS011;1536;51.098;6.414;2023-07-02T08:14:15;30.10;;;15.57;;
3052;SDS011;1536;51.098;6.414;2023-07-02T08:16:42;28.40;;;15.43;;
3052;SDS011;1536;51.098;6.414;2023-07-02T08:19:09;27.23;;;16.13;;
3052;SDS011;1536;51.098;6.414;2023-07-02T08:21:36;30.60;;;15.83;;
3052;SDS011;1536;51.098;6.414;2023-07-02T08:24:03;31.27;;;16.60;;
3052;SDS011;1536;51.098;6.414;2023-07-02T08:26:31;28.93;;;16.30;;
3052;SDS011;1536;51.098;6.414;2023-07-02T08:28:58;25.40;;;15.50;;
3052;SDS011;1536;51.098;6.414;2023-07-02T08:31:26;31.43;;;15.33;;
3052;SDS011;1536;51.098;6.414;2023-07-02T08:33:53;26.67;;;15.10;;
3052;SDS011;1536;51.098;6.414;2023-07-02T08:36:20;26.57;;;14.80;;
3052;SDS011;1536;51.098;6.414;2023-07-02T08:38:47;21.70;;;14.10;;
3052;SDS011;1536;51.098;6.414;2023-07-02T08:41:13;23.10;;;14.03;;
3052;SDS011;1536;51.098;6.414;2023-07-02T08:43:40;25.33;;;14.30;;
3052;SDS011;1536;51.098;6.414;2023-07-02T08:46:07;25.30;;;13.20;;
3052;SDS011;1536;51.098;6.414;2023-07-02T08:48:37;26.53;;;13.97;;
3052;SDS011;1536;51.098;6.414;2023-07-02T08:51:04;22.20;;;14.17;;
3052;SDS011;1536;51.098;6.414;2023-07-02T08:53:30;25.83;;;15.27;;
3052;SDS011;1536;51.098;6.414;2023-07-02T08:55:59;28.50;;;14.10;;
3052;SDS011;1536;51.098;6.414;2023-07-02T08:58:26;23.90;;;16.10;;
3052;SDS011;1536;51.098;6.414;2023-07-02T09:01:06;36.33;;;15.20;;
3052;SDS011;1536;51.098;6.414;2023-07-02T09:03:34;26.23;;;14.50;;
3052;SDS011;1536;51.098;6.414;2023-07-02T09:06:03;24.73;;;15.53;;
3052;SDS011;1536;51.098;6.414;2023-07-02T09:08:30;25.90;;;13.83;;
3052;SDS011;1536;51.098;6.414;2023-07-02T09:11:05;20.30;;;14.47;;
3052;SDS011;1536;51.098;6.414;2023-07-02T09:13:41;31.17;;;15.80;;
3052;SDS011;1536;51.098;6.414;2023-07-02T09:16:19;25.37;;;15.20;;
3052;SDS011;1536;51.098;6.414;2023-07-02T09:18:58;32.07;;;17.93;;
3052;SDS011;1536;51.098;6.414;2023-07-02T09:21:27;32.87;;;17.70;;
3052;SDS011;1536;51.098;6.414;2023-07-02T09:24:11;27.30;;;16.67;;
3052;SDS011;1536;51.098;6.414;2023-07-02T09:26:42;29.20;;;16.87;;
3052;SDS011;1536;51.098;6.414;2023-07-02T09:29:09;31.80;;;16.80;;
3052;SDS011;1536;51.098;6.414;2023-07-02T09:31:43;30.40;;;15.77;;
3052;SDS011;1536;51.098;6.414;2023-07-02T09:34:12;30.40;;;16.40;;
3052;SDS011;1536;51.098;6.414;2023-07-02T09:36:40;31.10;;;16.27;;
3052;SDS011;1536;51.098;6.414;2023-07-02T09:39:08;30.23;;;16.77;;
3052;SDS011;1536;51.098;6.414;2023-07-02T09:41:38;24.63;;;14.97;;
3052;SDS011;1536;51.098;6.414;2023-07-02T09:44:05;26.30;;;14.70;;
3052;SDS011;1536;51.098;6.414;2023-07-02T09:46:34;27.07;;;14.40;;
3052;SDS011;1536;51.098;6.414;2023-07-02T09:49:04;26.37;;;15.67;;
3052;SDS011;1536;51.098;6.414;2023-07-02T09:51:34;27.10;;;14.77;;
3052;SDS011;1536;51.098;6.414;2023-07-02T09:54:01;25.70;;;15.40;;
3052;SDS011;1536;51.098;6.414;2023-07-02T09:56:28;25.60;;;15.40;;
3052;SDS011;1536;51.098;6.414;2023-07-02T09:58:55;26.00;;;16.60;;
3052;SDS011;1536;51.098;6.414;2023-07-02T10:01:22;22.40;;;14.77;;
3052;SDS011;1536;51.098;6.414;2023-07-02T10:03:48;25.40;;;14.53;;
3052;SDS011;1536;51.098;6.414;2023-07-02T10:06:19;27.30;;;15.30;;
3052;SDS011;1536;51.098;6.414;2023-07-02T10:08:54;20.13;;;13.37;;
3052;SDS011;1536;51.098;6.414;2023-07-02T10:11:21;27.63;;;16.20;;
3052;SDS011;1536;51.098;6.414;2023-07-02T10:13:59;25.13;;;16.10;;
3052;SDS011;1536;51.098;6.414;2023-07-02T10:16:26;32.87;;;15.00;;
3052;SDS011;1536;51.098;6.414;2023-07-02T10:19:07;22.27;;;11.10;;
3052;SDS011;1536;51.098;6.414;2023-07-02T10:21:35;20.30;;;11.60;;
3052;SDS011;1536;51.098;6.414;2023-07-02T10:24:10;16.27;;;9.43;;
3052;SDS011;1536;51.098;6.414;2023-07-02T10:26:38;15.83;;;9.60;;
3052;SDS011;1536;51.098;6.414;2023-07-02T10:29:06;21.53;;;10.90;;
3052;SDS011;1536;51.098;6.414;2023-07-02T10:31:33;23.30;;;10.57;;
3052;SDS011;1536;51.098;6.414;2023-07-02T10:34:00;21.03;;;11.17;;
3052;SDS011;1536;51.098;6.414;2023-07-02T10:36:27;22.47;;;11.23;;
3052;SDS011;1536;51.098;6.414;2023-07-02T10:38:53;24.53;;;11.63;;
3052;SDS011;1536;51.098;6.414;2023-07-02T10:41:30;20.40;;;11.37;;
3052;SDS011;1536;51.098;6.414;2023-07-02T10:44:07;18.50;;;10.73;;
3052;SDS011;1536;51.098;6.414;2023-07-02T10:46:42;17.60;;;10.77;;
3052;SDS011;1536;51.098;6.414;2023-07-02T10:49:09;18.67;;;10.50;;
3052;SDS011;1536;51.098;6.414;2023-07-02T10:51:37;16.47;;;11.00;;
3052;SDS011;1536;51.098;6.414;2023-07-02T10:54:04;17.23;;;11.17;;
3052;SDS011;1536;51.098;6.414;2023-07-02T10:56:32;17.80;;;10.20;;
3052;SDS011;1536;51.098;6.414;2023-07-02T10:59:00;19.57;;;10.43;;
3052;SDS011;1536;51.098;6.414;2023-07-02T11:01:28;20.30;;;11.40;;
3052;SDS011;1536;51.098;6.414;2023-07-02T11:03:56;17.67;;;9.60;;
3052;SDS011;1536;51.098;6.414;2023-07-02T11:06:24;19.10;;;9.63;;
3052;SDS011;1536;51.098;6.414;2023-07-02T11:08:52;16.43;;;9.00;;
3052;SDS011;1536;51.098;6.414;2023-07-02T11:11:20;18.63;;;9.80;;
3052;SDS011;1536;51.098;6.414;2023-07-02T11:13:51;16.60;;;8.60;;
3052;SDS011;1536;51.098;6.414;2023-07-02T11:16:21;17.37;;;9.60;;
3052;SDS011;1536;51.098;6.414;2023-07-02T11:18:52;14.83;;;8.97;;
3052;SDS011;1536;51.098;6.414;2023-07-02T11:21:22;15.77;;;8.43;;
3052;SDS011;1536;51.098;6.414;2023-07-02T11:23:49;18.80;;;8.83;;
3052;SDS011;1536;51.098;6.414;2023-07-02T11:26:16;11.17;;;7.80;;
3052;SDS011;1536;51.098;6.414;2023-07-02T11:28:50;22.00;;;8.30;;
3052;SDS011;1536;51.098;6.414;2023-07-02T11:31:24;15.90;;;7.87;;
3052;SDS011;1536;51.098;6.414;2023-07-02T11:33:52;14.50;;;8.20;;
3052;SDS011;1536;51.098;6.414;2023-07-02T11:36:19;18.80;;;9.00;;
3052;SDS011;1536;51.098;6.414;2023-07-02T11:38:48;13.07;;;8.93;;
3052;SDS011;1536;51.098;6.414;2023-07-02T11:41:18;12.80;;;7.97;;
3052;SDS011;1536;51.098;6.414;2023-07-02T11:43:46;12.60;;;8.60;;
3052;SDS011;1536;51.098;6.414;2023-07-02T11:46:15;13.07;;;8.37;;
3052;SDS011;1536;51.098;6.414;2023-07-02T11:48:42;18.67;;;8.87;;
3052;SDS011;1536;51.098;6.414;2023-07-02T11:51:08;16.53;;;8.13;;
3052;SDS011;1536;51.098;6.414;2023-07-02T11:53:37;21.57;;;7.90;;
3052;SDS011;1536;51.098;6.414;2023-07-02T11:56:04;13.33;;;7.97;;
3052;SDS011;1536;51.098;6.414;2023-07-02T11:58:31;11.60;;;8.07;;
3052;SDS011;1536;51.098;6.414;2023-07-02T12:00:58;16.80;;;8.50;;
3052;SDS011;1536;51.098;6.414;2023-07-02T12:03:28;12.40;;;7.70;;
3052;SDS011;1536;51.098;6.414;2023-07-02T12:05:55;12.37;;;7.93;;
3052;SDS011;1536;51.098;6.414;2023-07-02T12:08:22;10.90;;;7.43;;
3052;SDS011;1536;51.098;6.414;2023-07-02T12:10:49;16.10;;;8.13;;
3052;SDS011;1536;51.098;6.414;2023-07-02T12:13:16;14.50;;;8.57;;
3052;SDS011;1536;51.098;6.414;2023-07-02T12:15:43;13.47;;;7.80;;
3052;SDS011;1536;51.098;6.414;2023-07-02T12:18:10;13.97;;;8.00;;
3052;SDS011;1536;51.098;6.414;2023-07-02T12:20:38;14.10;;;7.70;;
3052;SDS011;1536;51.098;6.414;2023-07-02T12:23:05;14.53;;;7.80;;
3052;SDS011;1536;51.098;6.414;2023-07-02T12:25:32;15.50;;;8.77;;
3052;SDS011;1536;51.098;6.414;2023-07-02T12:27:59;17.73;;;8.60;;
3052;SDS011;1536;51.098;6.414;2023-07-02T12:30:26;23.93;;;8.10;;
3052;SDS011;1536;51.098;6.414;2023-07-02T12:32:53;12.93;;;7.90;;
3052;SDS011;1536;51.098;6.414;2023-07-02T12:35:19;15.50;;;8.97;;
3052;SDS011;1536;51.098;6.414;2023-07-02T12:37:48;15.40;;;7.37;;
3052;SDS011;1536;51.098;6.414;2023-07-02T12:40:16;14.63;;;8.40;;
3052;SDS011;1536;51.098;6.414;2023-07-02T12:42:44;14.70;;;8.13;;
3052;SDS011;1536;51.098;6.414;2023-07-02T12:45:11;21.30;;;8.23;;
3052;SDS011;1536;51.098;6.414;2023-07-02T12:47:39;12.63;;;7.83;;
3052;SDS011;1536;51.098;6.414;2023-07-02T12:50:06;13.23;;;7.77;;
3052;SDS011;1536;51.098;6.414;2023-07-02T12:52:34;11.33;;;8.83;;
3052;SDS011;1536;51.098;6.414;2023-07-02T12:55:03;14.80;;;8.57;;
3052;SDS011;1536;51.098;6.414;2023-07-02T12:57:30;16.30;;;8.13;;
3052;SDS011;1536;51.098;6.414;2023-07-02T12:59:57;14.50;;;9.03;;
3052;SDS011;1536;51.098;6.414;2023-07-02T13:02:24;13.93;;;9.40;;
3052;SDS011;1536;51.098;6.414;2023-07-02T13:04:52;12.10;;;8.50;;
3052;SDS011;1536;51.098;6.414;2023-07-02T13:07:19;16.23;;;9.60;;
3052;SDS011;1536;51.098;6.414;2023-07-02T13:09:47;11.40;;;7.73;;
3052;SDS011;1536;51.098;6.414;2023-07-02T13:12:17;17.50;;;8.90;;
3052;SDS011;1536;51.098;6.414;2023-07-02T13:14:45;18.87;;;9.57;;
3052;SDS011;1536;51.098;6.414;2023-07-02T13:17:12;17.13;;;9.00;;
3052;SDS011;1536;51.098;6.414;2023-07-02T13:19:38;14.40;;;9.83;;
3052;SDS011;1536;51.098;6.414;2023-07-02T13:22:05;20.10;;;9.83;;
3052;SDS011;1536;51.098;6.414;2023-07-02T13:24:32;15.97;;;10.47;;
3052;SDS011;1536;51.098;6.414;2023-07-02T13:27:02;13.70;;;8.87;;
3052;SDS011;1536;51.098;6.414;2023-07-02T13:29:32;15.67;;;9.10;;
3052;SDS011;1536;51.098;6.414;2023-07-02T13:31:58;17.00;;;10.20;;
3052;SDS011;1536;51.098;6.414;2023-07-02T13:34:25;16.30;;;9.50;;
3052;SDS011;1536;51.098;6.414;2023-07-02T13:36:52;16.73;;;9.93;;
3052;SDS011;1536;51.098;6.414;2023-07-02T13:39:19;17.20;;;10.43;;
3052;SDS011;1536;51.098;6.414;2023-07-02T13:41:46;15.87;;;10.10;;
3052;SDS011;1536;51.098;6.414;2023-07-02T13:44:13;14.87;;;10.17;;
3052;SDS011;1536;51.098;6.414;2023-07-02T13:46:43;15.70;;;9.73;;
3052;SDS011;1536;51.098;6.414;2023-07-02T13:49:10;20.40;;;10.43;;
3052;SDS011;1536;51.098;6.414;2023-07-02T13:51:37;18.90;;;10.40;;
3052;SDS011;1536;51.098;6.414;2023-07-02T13:54:05;18.73;;;10.23;;
3052;SDS011;1536;51.098;6.414;2023-07-02T13:56:32;24.63;;;11.07;;
3052;SDS011;1536;51.098;6.414;2023-07-02T13:59:02;15.73;;;10.00;;
3052;SDS011;1536;51.098;6.414;2023-07-02T14:01:29;22.53;;;9.37;;
3052;SDS011;1536;51.098;6.414;2023-07-02T14:03:57;23.30;;;10.43;;
3052;SDS011;1536;51.098;6.414;2023-07-02T14:06:25;21.00;;;9.50;;
3052;SDS011;1536;51.098;6.414;2023-07-02T14:08:53;18.70;;;9.87;;
3052;SDS011;1536;51.098;6.414;2023-07-02T14:11:20;16.20;;;10.10;;
3052;SDS011;1536;51.098;6.414;2023-07-02T14:13:48;19.00;;;10.10;;
3052;SDS011;1536;51.098;6.414;2023-07-02T14:16:17;21.77;;;9.87;;
3052;SDS011;1536;51.098;6.414;2023-07-02T14:18:43;19.77;;;9.70;;
3052;SDS011;1536;51.098;6.414;2023-07-02T14:21:10;20.37;;;9.77;;
3052;SDS011;1536;51.098;6.414;2023-07-02T14:23:37;20.47;;;10.43;;
3052;SDS011;1536;51.098;6.414;2023-07-02T14:26:04;17.87;;;10.60;;
3052;SDS011;1536;51.098;6.414;2023-07-02T14:28:31;17.93;;;10.30;;
3052;SDS011;1536;51.098;6.414;2023-07-02T14:30:58;15.80;;;10.20;;
3052;SDS011;1536;51.098;6.414;2023-07-02T14:33:28;15.43;;;9.87;;
3052;SDS011;1536;51.098;6.414;2023-07-02T14:35:56;16.93;;;9.77;;
3052;SDS011;1536;51.098;6.414;2023-07-02T14:38:23;17.40;;;11.17;;
3052;SDS011;1536;51.098;6.414;2023-07-02T14:40:50;20.83;;;10.40;;
3052;SDS011;1536;51.098;6.414;2023-07-02T14:43:17;20.73;;;10.57;;
3052;SDS011;1536;51.098;6.414;2023-07-02T14:45:45;16.67;;;9.17;;
3052;SDS011;1536;51.098;6.414;2023-07-02T14:48:13;19.43;;;10.00;;
3052;SDS011;1536;51.098;6.414;2023-07-02T14:50:45;17.80;;;10.47;;
3052;SDS011;1536;51.098;6.414;2023-07-02T14:53:15;20.17;;;10.60;;
3052;SDS011;1536;51.098;6.414;2023-07-02T14:55:42;19.90;;;10.10;;
3052;SDS011;1536;51.098;6.414;2023-07-02T14:58:11;18.13;;;10.20;;